Okinawa, Japan

7:46 PM JST on March 24, 2017 (GMT +0900)
Kadena Air Base

Weather History for RODN - September, 2013

Change the Weather History Date:

Monday, September 2, 2013

  Actual Average Record
Temperature  
Mean Temperature 80 °F -  
Max Temperature 88 °F 85 °F 93 °F (1998)
Min Temperature 73 °F 74 °F 73 °F (2012)
Cooling Degree Days 16    
Growing Degree Days 30 (Base 50)    
Moisture  
Dew Point 76 °F    
Average Humidity 91    
Maximum Humidity 100    
Minimum Humidity 64    
Precipitation  
Precipitation 0.64 in - - ()
Sea Level Pressure  
Sea Level Pressure 29.70 in    
Wind  
Wind Speed 18 mph ()    
Max Wind Speed 34 mph    
Max Gust Speed 40 mph    
Visibility 9.0 miles    
Events Rain    
Averages and records for this station are not official NWS values.
T = Trace of Precipitation, MM = Missing Value Source: Averaged Metar Reports

Daily Weather History Graph

Daily Weather History Graph

Search for Another Location

Airport or City:

Trip Planner

Search our weather history database for the weather conditions in past years. The results will help you decide how hot, cold, wet, or windy it might be!

Date:

Astronomy

Sep. 02, 2013 Rise Set
Actual Time 6:09 AM JST 6:47 PM JST
Civil Twilight 5:45 AM JST 7:11 PM JST
Nautical Twilight 5:18 AM JST 7:38 PM JST
Astronomical Twilight 4:50 AM JST 8:06 PM JST
Moon 3:04 AM JST (9/2) 4:30 PM JST (9/2)
Length of Visible Light 13h 25m
Length of Day
12h 38m
Waning Crescent, 11% of the Moon is Illuminated
Sep 2
Waning Crescent
Sep 5
New
Sep 13
First Quarter
Sep 19
Full
Sep 27
Last Quarter

Hourly Weather History & Observations

Time (JST) Temp. Heat Index Dew Point Humidity Pressure Visibility Wind Dir Wind Speed Gust Speed Precip Events Conditions
12:55 AM 82.8 °F 92.2 °F 77.9 °F 85% 29.81 in 10.0 mi SSE 12.7 mph - N/A   Clear
1:55 AM 82.2 °F 91.6 °F 78.4 °F 88% 29.81 in 10.0 mi SSE 15.0 mph - N/A   Clear
2:55 AM 82.4 °F 92.1 °F 78.6 °F 88% 29.79 in 10.0 mi SE 15.0 mph - N/A   Partly Cloudy
3:55 AM 82.2 °F 90.7 °F 77.2 °F 85% 29.78 in 10.0 mi SE 16.1 mph - N/A   Partly Cloudy
4:55 AM 81.9 °F 90.8 °F 78.4 °F 89% 29.77 in 10.0 mi SSE 12.7 mph - N/A   Clear
5:55 AM 82.0 °F 89.7 °F 76.5 °F 83% 29.78 in 10.0 mi SSE 13.8 mph 23.0 mph N/A   Clear
6:55 AM 82.2 °F 90.7 °F 77.2 °F 85% 29.78 in 10.0 mi SSE 13.8 mph 20.7 mph N/A   Clear
7:55 AM 84.2 °F 94.9 °F 77.9 °F 81% 29.78 in 10.0 mi SSE 17.3 mph 26.5 mph N/A   Partly Cloudy
8:55 AM 86.5 °F 98.3 °F 77.4 °F 74% 29.79 in 10.0 mi South 21.9 mph 29.9 mph N/A   Clear
9:55 AM 85.8 °F 95.9 °F 76.3 °F 73% 29.78 in 10.0 mi South 24.2 mph 32.2 mph N/A   Partly Cloudy
10:46 AM 86.0 °F 96.9 °F 77.0 °F 74% 29.78 in 10.0 mi South 28.8 mph 38.0 mph N/A Rain Light Rain
10:55 AM 85.1 °F 94.9 °F 76.3 °F 75% 29.77 in 10.0 mi South 25.3 mph 38.0 mph 0.00 in   Scattered Clouds
11:55 AM 86.0 °F 96.0 °F 75.9 °F 72% 29.75 in 10.0 mi South 23.0 mph 28.8 mph N/A   Partly Cloudy
12:55 PM 88.7 °F 98.7 °F 75.2 °F 64% 29.74 in 10.0 mi South 24.2 mph 33.4 mph 0.02 in   Mostly Cloudy
1:55 PM 86.4 °F 95.1 °F 74.5 °F 68% 29.72 in 10.0 mi South 29.9 mph 34.5 mph N/A   Scattered Clouds
2:55 PM 84.7 °F 93.2 °F 75.2 °F 73% 29.69 in 10.0 mi South 27.6 mph 34.5 mph N/A   Mostly Cloudy
3:55 PM 82.9 °F 90.2 °F 75.0 °F 77% 29.67 in 10.0 mi SSE 19.6 mph 27.6 mph N/A   Partly Cloudy
4:24 PM 82.4 °F 88.2 °F 73.4 °F 74% 29.66 in 10.0 mi South 20.7 mph 36.8 mph N/A   Scattered Clouds
4:54 PM 80.6 °F 83.9 °F 69.8 °F 70% 29.68 in 10.0 mi South 27.6 mph 35.7 mph N/A   Mostly Cloudy
4:55 PM 81.3 °F 84.8 °F 69.8 °F 68% 29.68 in 10.0 mi South 26.5 mph 35.7 mph N/A   Mostly Cloudy
5:00 PM 80.6 °F 83.9 °F 69.8 °F 70% 29.68 in 10.0 mi South 34.5 mph 40.3 mph N/A Rain Light Rain
5:34 PM 77.0 °F - 73.4 °F 89% 29.68 in 10.0 mi South 16.1 mph 26.5 mph N/A Rain Light Rain
5:40 PM 77.0 °F - 75.2 °F 94% 29.68 in 9.0 mi South 21.9 mph 31.1 mph N/A Rain Light Rain
5:49 PM 77.0 °F - 73.4 °F 89% 29.69 in 8.0 mi South 23.0 mph 33.4 mph N/A Rain Light Rain
5:54 PM 75.2 °F - 69.8 °F 83% 29.69 in 6.0 mi South 27.6 mph 35.7 mph N/A Rain Light Rain
5:55 PM 75.0 °F - 68.0 °F 79% 29.69 in 6.0 mi South 24.2 mph 35.7 mph 0.05 in Rain Light Rain
6:14 PM 73.4 °F - 66.2 °F 78% 29.68 in 10.0 mi SSE 17.3 mph 26.5 mph N/A Rain Light Rain
6:16 PM 73.4 °F - 66.2 °F 78% 29.68 in 10.0 mi SSE 18.4 mph 26.5 mph N/A Rain Light Rain
6:19 PM 73.4 °F - 68.0 °F 83% 29.68 in 10.0 mi SSE 18.4 mph 24.2 mph N/A Rain Light Rain
6:46 PM 73.4 °F - 69.8 °F 88% 29.67 in 9.0 mi SE 17.3 mph - N/A Rain Light Rain
6:48 PM 73.4 °F - 71.6 °F 94% 29.67 in 9.0 mi SE 16.1 mph - N/A Rain Light Rain
6:51 PM 73.4 °F - 71.6 °F 94% 29.67 in 9.0 mi SE 16.1 mph - N/A Rain Light Rain
6:53 PM 75.2 °F - 73.4 °F 94% 29.67 in 9.0 mi SSE 17.3 mph 24.2 mph N/A Rain Light Rain
6:55 PM 74.8 °F - 73.4 °F 95% 29.68 in 9.0 mi SSE 17.3 mph 24.2 mph 0.12 in Rain Light Rain
6:59 PM 75.2 °F - 75.2 °F 100% 29.68 in 10.0 mi SSE 15.0 mph 24.2 mph N/A Rain Light Rain
7:10 PM 77.0 °F - 75.2 °F 94% 29.68 in 8.0 mi South 17.3 mph 27.6 mph N/A Rain Rain
7:24 PM 77.0 °F - 75.2 °F 94% 29.68 in 8.0 mi SSE 12.7 mph - N/A Rain Rain
7:36 PM 77.0 °F - 75.2 °F 94% 29.68 in 7.0 mi SSE 11.5 mph - N/A Rain Light Rain
7:48 PM 77.0 °F - 77.0 °F 100% 29.68 in 9.0 mi SSE 16.1 mph 23.0 mph N/A Rain Light Rain
7:55 PM 77.5 °F - 77.2 °F 99% 29.67 in 10.0 mi SSE 16.1 mph 23.0 mph 0.13 in Rain Light Rain
7:57 PM 77.0 °F - 77.0 °F 100% 29.68 in 10.0 mi SSE 15.0 mph 23.0 mph N/A Rain Light Rain
7:58 PM 77.0 °F - 77.0 °F 100% 29.68 in 10.0 mi SSE 15.0 mph 23.0 mph N/A Rain Light Rain
8:01 PM 77.0 °F - 77.0 °F 100% 29.68 in 10.0 mi SSE 15.0 mph 23.0 mph N/A Rain Light Rain
8:19 PM 77.0 °F - 77.0 °F 100% 29.68 in 10.0 mi SSE 13.8 mph 24.2 mph N/A Rain Light Rain
8:30 PM 78.8 °F - 77.0 °F 94% 29.68 in 9.0 mi SSE 13.8 mph 23.0 mph N/A Rain Light Rain
8:32 PM 78.8 °F - 77.0 °F 94% 29.68 in 8.0 mi SSE 15.0 mph 24.2 mph N/A Rain Light Rain
8:34 PM 78.8 °F - 77.0 °F 94% 29.68 in 8.0 mi SSE 15.0 mph 24.2 mph N/A Rain Light Rain
8:42 PM 78.8 °F - 77.0 °F 94% 29.68 in 8.0 mi SSE 19.6 mph 24.2 mph N/A Rain Light Rain
8:55 PM 78.3 °F - 77.9 °F 99% 29.68 in 6.0 mi SSE 15.0 mph 24.2 mph 0.11 in Rain Light Rain
8:56 PM 78.8 °F - 78.8 °F 100% 29.68 in 6.0 mi SE 15.0 mph 24.2 mph N/A Rain Rain
8:57 PM 78.8 °F - 78.8 °F 100% 29.68 in 6.0 mi SSE 16.1 mph 24.2 mph N/A Rain Light Rain
9:00 PM 78.8 °F - 78.8 °F 100% 29.68 in 6.0 mi SSE 18.4 mph - N/A Rain Light Rain
9:07 PM 78.8 °F - 78.8 °F 100% 29.69 in 8.0 mi SSE 20.7 mph 28.8 mph N/A Rain Rain
9:10 PM 78.8 °F - 78.8 °F 100% 29.69 in 8.0 mi SSE 17.3 mph 28.8 mph N/A Rain Light Rain
9:15 PM 78.8 °F - 78.8 °F 100% 29.69 in 6.0 mi South 15.0 mph 28.8 mph N/A Rain Light Rain
9:25 PM 78.8 °F - 78.8 °F 100% 29.69 in 10.0 mi South 21.9 mph 26.5 mph N/A   Mostly Cloudy
9:29 PM 78.8 °F - 78.8 °F 100% 29.69 in 10.0 mi South 23.0 mph 28.8 mph N/A Rain Light Rain
9:30 PM 78.8 °F - 78.8 °F 100% 29.70 in 10.0 mi South 21.9 mph 28.8 mph N/A Rain Light Rain
9:34 PM 78.8 °F - 78.8 °F 100% 29.69 in 10.0 mi South 17.3 mph 28.8 mph N/A Rain Light Rain
9:42 PM 78.8 °F - 78.8 °F 100% 29.70 in 9.0 mi South 21.9 mph 29.9 mph N/A Rain Rain
9:43 PM 78.8 °F - 78.8 °F 100% 29.70 in 8.0 mi South 21.9 mph 29.9 mph N/A Rain Rain
9:49 PM 78.8 °F - 78.8 °F 100% 29.70 in 7.0 mi South 24.2 mph 29.9 mph N/A Rain Light Rain
9:50 PM 78.8 °F - 78.8 °F 100% 29.70 in 7.0 mi South 23.0 mph 29.9 mph N/A Rain Light Rain
9:55 PM 78.1 °F - 77.9 °F 99% 29.70 in 8.0 mi South 24.2 mph 29.9 mph 0.16 in Rain Light Rain
9:58 PM 77.0 °F - 77.0 °F 100% 29.70 in 8.0 mi South 21.9 mph 29.9 mph N/A Rain Rain
10:00 PM 77.0 °F - 77.0 °F 100% 29.69 in 7.0 mi South 20.7 mph 29.9 mph N/A Rain Rain
10:04 PM 77.0 °F - 77.0 °F 100% 29.69 in 7.0 mi South 19.6 mph 29.9 mph N/A Rain Light Rain
10:06 PM 77.0 °F - 77.0 °F 100% 29.69 in 7.0 mi South 19.6 mph 28.8 mph N/A Rain Light Rain
10:15 PM 77.0 °F - 77.0 °F 100% 29.69 in 10.0 mi SSE 21.9 mph 28.8 mph N/A Rain Light Rain
10:16 PM 77.0 °F - 77.0 °F 100% 29.69 in 10.0 mi SSE 21.9 mph 28.8 mph N/A Rain Light Rain
10:23 PM 77.0 °F - 77.0 °F 100% 29.69 in 10.0 mi SSE 18.4 mph 28.8 mph N/A Rain Light Rain
10:48 PM 78.8 °F - 78.8 °F 100% 29.68 in 10.0 mi SSE 20.7 mph 29.9 mph N/A   Scattered Clouds
10:55 PM 78.4 °F - 77.9 °F 98% 29.68 in 10.0 mi SSE 16.1 mph 27.6 mph 0.05 in   Scattered Clouds
11:14 PM 78.8 °F - 78.8 °F 100% 29.68 in 10.0 mi SSE 17.3 mph - N/A Rain Light Rain
11:27 PM 78.8 °F - 77.0 °F 94% 29.68 in 10.0 mi SSE 21.9 mph 27.6 mph N/A   Partly Cloudy
11:52 PM 78.8 °F - 78.8 °F 100% 29.67 in 10.0 mi SSE 18.4 mph 27.6 mph N/A Rain Light Rain
11:55 PM 79.0 °F - 78.3 °F 98% 29.67 in 10.0 mi SSE 17.3 mph 24.2 mph 0.00 in Rain Light Rain